sensor_id;sensor_type;location;lat;lon;timestamp;temperature;humidity
7044;DHT22;57890;52.36301240;9.76001620;2022-07-23T00:00:26;20.00;89.00
7044;DHT22;57890;52.36301240;9.76001620;2022-07-23T00:02:54;20.00;89.10
7044;DHT22;57890;52.36301240;9.76001620;2022-07-23T00:05:21;20.00;89.10
7044;DHT22;57890;52.36301240;9.76001620;2022-07-23T00:07:48;20.00;89.10
7044;DHT22;57890;52.36301240;9.76001620;2022-07-23T00:10:16;20.00;89.80
7044;DHT22;57890;52.36301240;9.76001620;2022-07-23T00:12:42;20.00;89.20
7044;DHT22;57890;52.36301240;9.76001620;2022-07-23T00:15:10;20.00;89.10
7044;DHT22;57890;52.36301240;9.76001620;2022-07-23T00:17:36;20.00;89.10
7044;DHT22;57890;52.36301240;9.76001620;2022-07-23T00:20:06;19.90;89.10
7044;DHT22;57890;52.36301240;9.76001620;2022-07-23T00:22:33;19.90;89.20
7044;DHT22;57890;52.36301240;9.76001620;2022-07-23T00:25:00;19.90;89.20
7044;DHT22;57890;52.36301240;9.76001620;2022-07-23T00:27:27;19.90;89.30
7044;DHT22;57890;52.36301240;9.76001620;2022-07-23T00:29:54;19.90;89.20
7044;DHT22;57890;52.36301240;9.76001620;2022-07-23T00:32:21;19.90;89.30
7044;DHT22;57890;52.36301240;9.76001620;2022-07-23T00:34:47;19.90;89.30
7044;DHT22;57890;52.36301240;9.76001620;2022-07-23T00:37:16;19.80;89.30
7044;DHT22;57890;52.36301240;9.76001620;2022-07-23T00:39:42;19.90;89.40
7044;DHT22;57890;52.36301240;9.76001620;2022-07-23T00:42:09;19.80;89.30
7044;DHT22;57890;52.36301240;9.76001620;2022-07-23T00:44:36;19.90;89.50
7044;DHT22;57890;52.36301240;9.76001620;2022-07-23T00:47:03;19.90;89.50
7044;DHT22;57890;52.36301240;9.76001620;2022-07-23T00:49:31;19.80;89.30
7044;DHT22;57890;52.36301240;9.76001620;2022-07-23T00:52:01;19.80;89.30
7044;DHT22;57890;52.36301240;9.76001620;2022-07-23T00:54:30;19.90;89.40
7044;DHT22;57890;52.36301240;9.76001620;2022-07-23T00:56:57;19.90;89.30
7044;DHT22;57890;52.36301240;9.76001620;2022-07-23T00:59:24;19.80;89.30
7044;DHT22;57890;52.36301240;9.76001620;2022-07-23T01:01:51;19.90;89.30
7044;DHT22;57890;52.36301240;9.76001620;2022-07-23T01:04:18;19.80;89.20
7044;DHT22;57890;52.36301240;9.76001620;2022-07-23T01:06:45;19.80;89.20
7044;DHT22;57890;52.36301240;9.76001620;2022-07-23T01:09:12;19.80;89.10
7044;DHT22;57890;52.36301240;9.76001620;2022-07-23T01:11:41;19.80;89.20
7044;DHT22;57890;52.36301240;9.76001620;2022-07-23T01:14:10;19.80;89.30
7044;DHT22;57890;52.36301240;9.76001620;2022-07-23T01:16:38;19.70;89.20
7044;DHT22;57890;52.36301240;9.76001620;2022-07-23T01:19:05;19.70;89.10
7044;DHT22;57890;52.36301240;9.76001620;2022-07-23T01:21:35;19.70;89.20
7044;DHT22;57890;52.36301240;9.76001620;2022-07-23T01:24:05;19.70;89.20
7044;DHT22;57890;52.36301240;9.76001620;2022-07-23T01:26:35;19.60;89.10
7044;DHT22;57890;52.36301240;9.76001620;2022-07-23T01:29:03;19.60;89.10
7044;DHT22;57890;52.36301240;9.76001620;2022-07-23T01:31:30;19.60;89.10
7044;DHT22;57890;52.36301240;9.76001620;2022-07-23T01:33:58;19.60;89.20
7044;DHT22;57890;52.36301240;9.76001620;2022-07-23T01:36:25;19.60;89.20
7044;DHT22;57890;52.36301240;9.76001620;2022-07-23T01:38:53;19.60;89.30
7044;DHT22;57890;52.36301240;9.76001620;2022-07-23T01:41:22;19.60;89.30
7044;DHT22;57890;52.36301240;9.76001620;2022-07-23T01:43:48;19.50;89.30
7044;DHT22;57890;52.36301240;9.76001620;2022-07-23T01:46:16;19.50;89.20
7044;DHT22;57890;52.36301240;9.76001620;2022-07-23T01:48:46;19.50;89.30
7044;DHT22;57890;52.36301240;9.76001620;2022-07-23T01:51:32;19.50;89.30
7044;DHT22;57890;52.36301240;9.76001620;2022-07-23T01:54:07;19.50;89.30
7044;DHT22;57890;52.36301240;9.76001620;2022-07-23T01:56:35;19.50;89.40
7044;DHT22;57890;52.36301240;9.76001620;2022-07-23T01:59:02;19.50;89.40
7044;DHT22;57890;52.36301240;9.76001620;2022-07-23T02:01:29;19.40;89.30
7044;DHT22;57890;52.36301240;9.76001620;2022-07-23T02:03:56;19.40;89.40
7044;DHT22;57890;52.36301240;9.76001620;2022-07-23T02:06:24;19.40;89.30
7044;DHT22;57890;52.36301240;9.76001620;2022-07-23T02:08:50;19.40;89.50
7044;DHT22;57890;52.36301240;9.76001620;2022-07-23T02:11:17;19.40;89.50
7044;DHT22;57890;52.36301240;9.76001620;2022-07-23T02:13:45;19.40;89.50
7044;DHT22;57890;52.36301240;9.76001620;2022-07-23T02:16:12;19.40;89.60
7044;DHT22;57890;52.36301240;9.76001620;2022-07-23T02:18:39;19.40;89.70
7044;DHT22;57890;52.36301240;9.76001620;2022-07-23T02:21:06;19.40;89.70
7044;DHT22;57890;52.36301240;9.76001620;2022-07-23T02:23:33;19.40;89.70
7044;DHT22;57890;52.36301240;9.76001620;2022-07-23T02:26:00;19.40;89.80
7044;DHT22;57890;52.36301240;9.76001620;2022-07-23T02:28:28;19.40;89.80
7044;DHT22;57890;52.36301240;9.76001620;2022-07-23T02:30:57;19.40;89.80
7044;DHT22;57890;52.36301240;9.76001620;2022-07-23T02:33:24;19.40;89.90
7044;DHT22;57890;52.36301240;9.76001620;2022-07-23T02:35:52;19.40;89.90
7044;DHT22;57890;52.36301240;9.76001620;2022-07-23T02:38:20;19.50;89.90
7044;DHT22;57890;52.36301240;9.76001620;2022-07-23T02:40:47;19.40;89.70
7044;DHT22;57890;52.36301240;9.76001620;2022-07-23T02:43:14;19.50;89.90
7044;DHT22;57890;52.36301240;9.76001620;2022-07-23T02:45:41;19.50;89.80
7044;DHT22;57890;52.36301240;9.76001620;2022-07-23T02:48:10;19.40;89.70
7044;DHT22;57890;52.36301240;9.76001620;2022-07-23T02:50:38;19.40;89.70
7044;DHT22;57890;52.36301240;9.76001620;2022-07-23T02:53:06;19.50;89.80
7044;DHT22;57890;52.36301240;9.76001620;2022-07-23T02:55:32;19.40;89.60
7044;DHT22;57890;52.36301240;9.76001620;2022-07-23T02:58:01;19.50;89.70
7044;DHT22;57890;52.36301240;9.76001620;2022-07-23T03:00:28;19.40;89.60
7044;DHT22;57890;52.36301240;9.76001620;2022-07-23T03:02:55;19.40;89.70
7044;DHT22;57890;52.36301240;9.76001620;2022-07-23T03:05:23;19.40;89.60
7044;DHT22;57890;52.36301240;9.76001620;2022-07-23T03:07:50;19.40;89.50
7044;DHT22;57890;52.36301240;9.76001620;2022-07-23T03:10:17;19.40;89.60
7044;DHT22;57890;52.36301240;9.76001620;2022-07-23T03:12:44;19.40;89.60
7044;DHT22;57890;52.36301240;9.76001620;2022-07-23T03:15:11;19.40;89.60
7044;DHT22;57890;52.36301240;9.76001620;2022-07-23T03:17:38;19.40;89.70
7044;DHT22;57890;52.36301240;9.76001620;2022-07-23T03:20:06;19.40;89.70
7044;DHT22;57890;52.36301240;9.76001620;2022-07-23T03:22:35;19.40;89.70
7044;DHT22;57890;52.36301240;9.76001620;2022-07-23T03:25:03;19.40;89.70
7044;DHT22;57890;52.36301240;9.76001620;2022-07-23T03:27:34;19.30;89.50
7044;DHT22;57890;52.36301240;9.76001620;2022-07-23T03:30:01;19.30;89.70
7044;DHT22;57890;52.36301240;9.76001620;2022-07-23T03:32:28;19.30;89.70
7044;DHT22;57890;52.36301240;9.76001620;2022-07-23T03:34:57;19.30;89.80
7044;DHT22;57890;52.36301240;9.76001620;2022-07-23T03:37:24;19.30;89.90
7044;DHT22;57890;52.36301240;9.76001620;2022-07-23T03:39:53;19.20;89.90
7044;DHT22;57890;52.36301240;9.76001620;2022-07-23T03:42:19;19.20;90.10
7044;DHT22;57890;52.36301240;9.76001620;2022-07-23T03:44:46;19.20;90.10
7044;DHT22;57890;52.36301240;9.76001620;2022-07-23T03:47:13;19.20;90.20
7044;DHT22;57890;52.36301240;9.76001620;2022-07-23T03:49:43;19.20;90.20
7044;DHT22;57890;52.36301240;9.76001620;2022-07-23T03:52:10;19.20;90.30
7044;DHT22;57890;52.36301240;9.76001620;2022-07-23T03:54:36;19.10;90.20
7044;DHT22;57890;52.36301240;9.76001620;2022-07-23T03:57:05;19.10;90.20
7044;DHT22;57890;52.36301240;9.76001620;2022-07-23T03:59:32;19.20;90.40
7044;DHT22;57890;52.36301240;9.76001620;2022-07-23T04:01:59;19.10;90.30
7044;DHT22;57890;52.36301240;9.76001620;2022-07-23T04:04:26;19.10;90.30
7044;DHT22;57890;52.36301240;9.76001620;2022-07-23T04:06:53;19.10;90.40
7044;DHT22;57890;52.36301240;9.76001620;2022-07-23T04:09:20;19.10;90.50
7044;DHT22;57890;52.36301240;9.76001620;2022-07-23T04:11:47;19.10;90.40
7044;DHT22;57890;52.36301240;9.76001620;2022-07-23T04:14:16;19.10;90.50
7044;DHT22;57890;52.36301240;9.76001620;2022-07-23T04:16:43;19.10;90.40
7044;DHT22;57890;52.36301240;9.76001620;2022-07-23T04:19:10;19.10;90.50
7044;DHT22;57890;52.36301240;9.76001620;2022-07-23T04:21:50;19.10;90.50
7044;DHT22;57890;52.36301240;9.76001620;2022-07-23T04:24:17;19.10;90.50
7044;DHT22;57890;52.36301240;9.76001620;2022-07-23T04:26:44;19.10;90.60
7044;DHT22;57890;52.36301240;9.76001620;2022-07-23T04:29:11;19.10;90.60
7044;DHT22;57890;52.36301240;9.76001620;2022-07-23T04:31:39;19.10;90.60
7044;DHT22;57890;52.36301240;9.76001620;2022-07-23T04:34:07;19.10;90.60
7044;DHT22;57890;52.36301240;9.76001620;2022-07-23T04:36:34;19.10;90.60
7044;DHT22;57890;52.36301240;9.76001620;2022-07-23T04:39:00;19.10;90.50
7044;DHT22;57890;52.36301240;9.76001620;2022-07-23T04:41:27;19.10;90.60
7044;DHT22;57890;52.36301240;9.76001620;2022-07-23T04:43:55;19.10;90.60
7044;DHT22;57890;52.36301240;9.76001620;2022-07-23T04:46:21;19.10;90.60
7044;DHT22;57890;52.36301240;9.76001620;2022-07-23T04:48:52;19.10;90.60
7044;DHT22;57890;52.36301240;9.76001620;2022-07-23T04:51:19;19.10;90.60
7044;DHT22;57890;52.36301240;9.76001620;2022-07-23T04:53:45;19.10;90.60
7044;DHT22;57890;52.36301240;9.76001620;2022-07-23T04:56:13;19.10;90.60
7044;DHT22;57890;52.36301240;9.76001620;2022-07-23T04:58:40;19.10;90.60
7044;DHT22;57890;52.36301240;9.76001620;2022-07-23T05:01:07;19.10;90.60
7044;DHT22;57890;52.36301240;9.76001620;2022-07-23T05:03:35;19.10;90.60
7044;DHT22;57890;52.36301240;9.76001620;2022-07-23T05:06:03;19.10;90.70
7044;DHT22;57890;52.36301240;9.76001620;2022-07-23T05:08:30;19.10;90.70
7044;DHT22;57890;52.36301240;9.76001620;2022-07-23T05:10:58;19.10;90.60
7044;DHT22;57890;52.36301240;9.76001620;2022-07-23T05:13:25;19.10;90.60
7044;DHT22;57890;52.36301240;9.76001620;2022-07-23T05:15:53;19.10;90.70
7044;DHT22;57890;52.36301240;9.76001620;2022-07-23T05:18:21;19.10;90.70
7044;DHT22;57890;52.36301240;9.76001620;2022-07-23T05:20:51;19.20;90.70
7044;DHT22;57890;52.36301240;9.76001620;2022-07-23T05:23:21;19.20;90.70
7044;DHT22;57890;52.36301240;9.76001620;2022-07-23T05:25:49;19.20;90.70
7044;DHT22;57890;52.36301240;9.76001620;2022-07-23T05:28:16;19.20;90.70
7044;DHT22;57890;52.36301240;9.76001620;2022-07-23T05:30:43;19.20;90.70
7044;DHT22;57890;52.36301240;9.76001620;2022-07-23T05:33:13;19.20;90.60
7044;DHT22;57890;52.36301240;9.76001620;2022-07-23T05:35:41;19.20;90.70
7044;DHT22;57890;52.36301240;9.76001620;2022-07-23T05:38:24;19.30;90.70
7044;DHT22;57890;52.36301240;9.76001620;2022-07-23T05:40:53;19.30;90.60
7044;DHT22;57890;52.36301240;9.76001620;2022-07-23T05:43:20;19.30;90.60
7044;DHT22;57890;52.36301240;9.76001620;2022-07-23T05:45:47;19.30;90.70
7044;DHT22;57890;52.36301240;9.76001620;2022-07-23T05:48:14;19.30;90.60
7044;DHT22;57890;52.36301240;9.76001620;2022-07-23T05:50:52;19.30;90.60
7044;DHT22;57890;52.36301240;9.76001620;2022-07-23T05:53:31;19.30;90.60
7044;DHT22;57890;52.36301240;9.76001620;2022-07-23T05:56:05;19.40;90.70
7044;DHT22;57890;52.36301240;9.76001620;2022-07-23T05:58:32;19.40;90.80
7044;DHT22;57890;52.36301240;9.76001620;2022-07-23T06:00:58;19.40;90.70
7044;DHT22;57890;52.36301240;9.76001620;2022-07-23T06:03:36;19.50;90.80
7044;DHT22;57890;52.36301240;9.76001620;2022-07-23T06:06:04;19.60;90.70
7044;DHT22;57890;52.36301240;9.76001620;2022-07-23T06:08:32;19.60;90.70
7044;DHT22;57890;52.36301240;9.76001620;2022-07-23T06:11:00;19.70;90.60
7044;DHT22;57890;52.36301240;9.76001620;2022-07-23T06:13:26;19.70;90.60
7044;DHT22;57890;52.36301240;9.76001620;2022-07-23T06:15:53;19.70;90.60
7044;DHT22;57890;52.36301240;9.76001620;2022-07-23T06:18:20;19.80;90.60
7044;DHT22;57890;52.36301240;9.76001620;2022-07-23T06:20:47;19.80;90.60
7044;DHT22;57890;52.36301240;9.76001620;2022-07-23T06:23:14;19.80;90.60
7044;DHT22;57890;52.36301240;9.76001620;2022-07-23T06:25:42;19.90;90.60
7044;DHT22;57890;52.36301240;9.76001620;2022-07-23T06:28:09;20.00;90.70
7044;DHT22;57890;52.36301240;9.76001620;2022-07-23T06:30:36;19.90;90.60
7044;DHT22;57890;52.36301240;9.76001620;2022-07-23T06:33:03;20.00;90.80
7044;DHT22;57890;52.36301240;9.76001620;2022-07-23T06:35:30;20.00;90.40
7044;DHT22;57890;52.36301240;9.76001620;2022-07-23T06:37:57;20.10;90.30
7044;DHT22;57890;52.36301240;9.76001620;2022-07-23T06:40:24;20.10;90.30
7044;DHT22;57890;52.36301240;9.76001620;2022-07-23T06:42:52;20.10;90.30
7044;DHT22;57890;52.36301240;9.76001620;2022-07-23T06:45:22;20.10;90.20
7044;DHT22;57890;52.36301240;9.76001620;2022-07-23T06:47:49;20.10;90.20
7044;DHT22;57890;52.36301240;9.76001620;2022-07-23T06:50:15;20.10;90.10
7044;DHT22;57890;52.36301240;9.76001620;2022-07-23T06:52:42;20.20;90.10
7044;DHT22;57890;52.36301240;9.76001620;2022-07-23T06:55:10;20.20;90.10
7044;DHT22;57890;52.36301240;9.76001620;2022-07-23T06:57:37;20.20;90.00
7044;DHT22;57890;52.36301240;9.76001620;2022-07-23T07:00:08;20.20;89.90
7044;DHT22;57890;52.36301240;9.76001620;2022-07-23T07:02:35;20.30;89.90
7044;DHT22;57890;52.36301240;9.76001620;2022-07-23T07:05:02;20.30;89.80
7044;DHT22;57890;52.36301240;9.76001620;2022-07-23T07:07:29;20.30;89.60
7044;DHT22;57890;52.36301240;9.76001620;2022-07-23T07:09:56;20.30;89.60
7044;DHT22;57890;52.36301240;9.76001620;2022-07-23T07:12:23;20.40;89.70
7044;DHT22;57890;52.36301240;9.76001620;2022-07-23T07:14:50;20.40;89.60
7044;DHT22;57890;52.36301240;9.76001620;2022-07-23T07:17:18;20.40;89.60
7044;DHT22;57890;52.36301240;9.76001620;2022-07-23T07:19:45;20.40;89.50
7044;DHT22;57890;52.36301240;9.76001620;2022-07-23T07:22:12;20.40;89.60
7044;DHT22;57890;52.36301240;9.76001620;2022-07-23T07:24:39;20.50;89.60
7044;DHT22;57890;52.36301240;9.76001620;2022-07-23T07:27:06;20.50;89.40
7044;DHT22;57890;52.36301240;9.76001620;2022-07-23T07:29:32;20.50;89.40
7044;DHT22;57890;52.36301240;9.76001620;2022-07-23T07:31:59;20.50;89.30
7044;DHT22;57890;52.36301240;9.76001620;2022-07-23T07:34:28;20.50;89.20
7044;DHT22;57890;52.36301240;9.76001620;2022-07-23T07:36:54;20.60;88.90
7044;DHT22;57890;52.36301240;9.76001620;2022-07-23T07:39:21;20.60;88.70
7044;DHT22;57890;52.36301240;9.76001620;2022-07-23T07:41:48;20.60;88.70
7044;DHT22;57890;52.36301240;9.76001620;2022-07-23T07:44:15;20.60;88.50
7044;DHT22;57890;52.36301240;9.76001620;2022-07-23T07:46:42;20.60;88.20
7044;DHT22;57890;52.36301240;9.76001620;2022-07-23T07:49:09;20.60;88.00
7044;DHT22;57890;52.36301240;9.76001620;2022-07-23T07:51:38;20.60;87.70
7044;DHT22;57890;52.36301240;9.76001620;2022-07-23T07:54:04;20.60;87.30
7044;DHT22;57890;52.36301240;9.76001620;2022-07-23T07:56:31;20.50;86.90
7044;DHT22;57890;52.36301240;9.76001620;2022-07-23T07:58:58;20.50;87.10
7044;DHT22;57890;52.36301240;9.76001620;2022-07-23T08:01:26;20.60;87.10
7044;DHT22;57890;52.36301240;9.76001620;2022-07-23T08:03:53;20.60;86.80
7044;DHT22;57890;52.36301240;9.76001620;2022-07-23T08:06:20;20.60;86.80
7044;DHT22;57890;52.36301240;9.76001620;2022-07-23T08:08:48;20.60;86.90
7044;DHT22;57890;52.36301240;9.76001620;2022-07-23T08:11:16;20.60;87.00
7044;DHT22;57890;52.36301240;9.76001620;2022-07-23T08:13:43;20.70;87.10
7044;DHT22;57890;52.36301240;9.76001620;2022-07-23T08:16:10;20.70;87.10
7044;DHT22;57890;52.36301240;9.76001620;2022-07-23T08:18:37;20.70;86.90
7044;DHT22;57890;52.36301240;9.76001620;2022-07-23T08:21:04;20.60;87.50
7044;DHT22;57890;52.36301240;9.76001620;2022-07-23T08:23:31;20.60;86.60
7044;DHT22;57890;52.36301240;9.76001620;2022-07-23T08:26:00;20.60;86.40
7044;DHT22;57890;52.36301240;9.76001620;2022-07-23T08:28:27;20.60;86.00
7044;DHT22;57890;52.36301240;9.76001620;2022-07-23T08:30:54;20.70;85.80
7044;DHT22;57890;52.36301240;9.76001620;2022-07-23T08:33:21;20.70;85.90
7044;DHT22;57890;52.36301240;9.76001620;2022-07-23T08:35:49;20.70;86.10
7044;DHT22;57890;52.36301240;9.76001620;2022-07-23T08:38:20;20.70;85.60
7044;DHT22;57890;52.36301240;9.76001620;2022-07-23T08:40:49;20.80;85.70
7044;DHT22;57890;52.36301240;9.76001620;2022-07-23T08:43:20;20.80;85.30
7044;DHT22;57890;52.36301240;9.76001620;2022-07-23T08:45:49;20.80;85.30
7044;DHT22;57890;52.36301240;9.76001620;2022-07-23T08:48:18;20.90;85.50
7044;DHT22;57890;52.36301240;9.76001620;2022-07-23T08:50:47;20.90;85.50
7044;DHT22;57890;52.36301240;9.76001620;2022-07-23T08:53:16;20.90;85.40
7044;DHT22;57890;52.36301240;9.76001620;2022-07-23T08:55:44;20.90;85.40
7044;DHT22;57890;52.36301240;9.76001620;2022-07-23T08:58:12;21.00;85.40
7044;DHT22;57890;52.36301240;9.76001620;2022-07-23T09:00:41;21.00;84.90
7044;DHT22;57890;52.36301240;9.76001620;2022-07-23T09:03:14;21.00;84.80
7044;DHT22;57890;52.36301240;9.76001620;2022-07-23T09:05:42;21.00;85.00
7044;DHT22;57890;52.36301240;9.76001620;2022-07-23T09:08:11;21.00;84.70
7044;DHT22;57890;52.36301240;9.76001620;2022-07-23T09:10:46;21.10;84.60
7044;DHT22;57890;52.36301240;9.76001620;2022-07-23T09:13:33;21.10;84.20
7044;DHT22;57890;52.36301240;9.76001620;2022-07-23T09:16:04;21.10;83.70
7044;DHT22;57890;52.36301240;9.76001620;2022-07-23T09:18:34;21.20;83.90
7044;DHT22;57890;52.36301240;9.76001620;2022-07-23T09:21:22;21.20;83.80
7044;DHT22;57890;52.36301240;9.76001620;2022-07-23T09:23:52;21.20;83.60
7044;DHT22;57890;52.36301240;9.76001620;2022-07-23T09:26:24;21.20;83.40
7044;DHT22;57890;52.36301240;9.76001620;2022-07-23T09:28:57;21.20;83.40
7044;DHT22;57890;52.36301240;9.76001620;2022-07-23T09:31:31;21.10;83.30
7044;DHT22;57890;52.36301240;9.76001620;2022-07-23T09:34:18;21.10;83.10
7044;DHT22;57890;52.36301240;9.76001620;2022-07-23T09:36:46;21.10;83.20
7044;DHT22;57890;52.36301240;9.76001620;2022-07-23T09:39:15;21.10;83.30
7044;DHT22;57890;52.36301240;9.76001620;2022-07-23T09:41:44;21.10;83.20
7044;DHT22;57890;52.36301240;9.76001620;2022-07-23T09:44:14;21.10;83.00
7044;DHT22;57890;52.36301240;9.76001620;2022-07-23T09:46:43;21.10;83.20
7044;DHT22;57890;52.36301240;9.76001620;2022-07-23T09:49:13;21.20;83.20
7044;DHT22;57890;52.36301240;9.76001620;2022-07-23T09:51:44;21.20;83.00
7044;DHT22;57890;52.36301240;9.76001620;2022-07-23T09:54:21;21.30;83.10
7044;DHT22;57890;52.36301240;9.76001620;2022-07-23T09:56:48;21.40;83.10
7044;DHT22;57890;52.36301240;9.76001620;2022-07-23T09:59:16;21.40;83.20
7044;DHT22;57890;52.36301240;9.76001620;2022-07-23T10:01:45;21.40;83.00
7044;DHT22;57890;52.36301240;9.76001620;2022-07-23T10:04:13;21.40;82.70
7044;DHT22;57890;52.36301240;9.76001620;2022-07-23T10:07:09;21.40;82.90
7044;DHT22;57890;52.36301240;9.76001620;2022-07-23T10:09:55;21.40;83.30
7044;DHT22;57890;52.36301240;9.76001620;2022-07-23T10:12:47;21.40;83.10
7044;DHT22;57890;52.36301240;9.76001620;2022-07-23T10:15:32;21.40;82.80
7044;DHT22;57890;52.36301240;9.76001620;2022-07-23T10:18:00;21.40;82.60
7044;DHT22;57890;52.36301240;9.76001620;2022-07-23T10:20:27;21.40;82.90
7044;DHT22;57890;52.36301240;9.76001620;2022-07-23T10:22:59;21.50;83.00
7044;DHT22;57890;52.36301240;9.76001620;2022-07-23T10:25:35;21.40;82.20
7044;DHT22;57890;52.36301240;9.76001620;2022-07-23T10:28:16;21.50;81.90
7044;DHT22;57890;52.36301240;9.76001620;2022-07-23T10:30:55;21.60;82.20
7044;DHT22;57890;52.36301240;9.76001620;2022-07-23T10:33:48;21.60;82.10
7044;DHT22;57890;52.36301240;9.76001620;2022-07-23T10:36:21;21.70;81.90
7044;DHT22;57890;52.36301240;9.76001620;2022-07-23T10:38:52;21.70;81.80
7044;DHT22;57890;52.36301240;9.76001620;2022-07-23T10:41:31;21.80;82.00
7044;DHT22;57890;52.36301240;9.76001620;2022-07-23T10:44:09;21.80;81.80
7044;DHT22;57890;52.36301240;9.76001620;2022-07-23T10:46:56;21.80;81.80
7044;DHT22;57890;52.36301240;9.76001620;2022-07-23T10:49:42;21.80;81.60
7044;DHT22;57890;52.36301240;9.76001620;2022-07-23T10:52:17;21.80;82.40
7044;DHT22;57890;52.36301240;9.76001620;2022-07-23T10:54:45;21.80;82.70
7044;DHT22;57890;52.36301240;9.76001620;2022-07-23T10:57:14;21.80;82.30
7044;DHT22;57890;52.36301240;9.76001620;2022-07-23T11:00:15;21.90;82.30
7044;DHT22;57890;52.36301240;9.76001620;2022-07-23T11:02:45;21.90;82.00
7044;DHT22;57890;52.36301240;9.76001620;2022-07-23T11:05:15;22.00;81.70
7044;DHT22;57890;52.36301240;9.76001620;2022-07-23T11:08:11;22.10;81.20
7044;DHT22;57890;52.36301240;9.76001620;2022-07-23T11:10:42;22.10;81.00
7044;DHT22;57890;52.36301240;9.76001620;2022-07-23T11:13:39;22.10;81.10
7044;DHT22;57890;52.36301240;9.76001620;2022-07-23T11:16:14;22.00;80.30
7044;DHT22;57890;52.36301240;9.76001620;2022-07-23T11:18:56;22.00;80.40
7044;DHT22;57890;52.36301240;9.76001620;2022-07-23T11:21:58;22.10;80.30
7044;DHT22;57890;52.36301240;9.76001620;2022-07-23T11:24:25;22.10;79.90
7044;DHT22;57890;52.36301240;9.76001620;2022-07-23T11:27:00;22.10;80.00
7044;DHT22;57890;52.36301240;9.76001620;2022-07-23T11:29:47;22.20;80.20
7044;DHT22;57890;52.36301240;9.76001620;2022-07-23T11:32:37;22.20;79.80
7044;DHT22;57890;52.36301240;9.76001620;2022-07-23T11:35:23;22.20;79.70
7044;DHT22;57890;52.36301240;9.76001620;2022-07-23T11:37:54;22.20;80.50
7044;DHT22;57890;52.36301240;9.76001620;2022-07-23T11:40:25;22.20;79.90
7044;DHT22;57890;52.36301240;9.76001620;2022-07-23T11:42:56;22.20;79.80
7044;DHT22;57890;52.36301240;9.76001620;2022-07-23T11:45:25;22.20;80.10
7044;DHT22;57890;52.36301240;9.76001620;2022-07-23T11:47:52;22.30;80.00
7044;DHT22;57890;52.36301240;9.76001620;2022-07-23T11:50:19;22.30;79.60
7044;DHT22;57890;52.36301240;9.76001620;2022-07-23T11:52:49;22.30;79.30
7044;DHT22;57890;52.36301240;9.76001620;2022-07-23T11:55:17;22.30;79.10
7044;DHT22;57890;52.36301240;9.76001620;2022-07-23T11:57:45;22.30;79.00
7044;DHT22;57890;52.36301240;9.76001620;2022-07-23T12:00:14;22.30;79.30
7044;DHT22;57890;52.36301240;9.76001620;2022-07-23T12:02:42;22.40;79.20
7044;DHT22;57890;52.36301240;9.76001620;2022-07-23T12:05:12;22.50;79.30
7044;DHT22;57890;52.36301240;9.76001620;2022-07-23T12:07:40;22.50;79.00
7044;DHT22;57890;52.36301240;9.76001620;2022-07-23T12:10:12;22.60;79.10
7044;DHT22;57890;52.36301240;9.76001620;2022-07-23T12:12:43;22.70;79.00
7044;DHT22;57890;52.36301240;9.76001620;2022-07-23T12:15:12;22.80;78.90
7044;DHT22;57890;52.36301240;9.76001620;2022-07-23T12:17:42;22.80;78.70
7044;DHT22;57890;52.36301240;9.76001620;2022-07-23T12:20:12;22.80;78.30
7044;DHT22;57890;52.36301240;9.76001620;2022-07-23T12:22:41;22.90;78.10
7044;DHT22;57890;52.36301240;9.76001620;2022-07-23T12:25:10;23.00;78.10
7044;DHT22;57890;52.36301240;9.76001620;2022-07-23T12:27:38;23.00;78.00
7044;DHT22;57890;52.36301240;9.76001620;2022-07-23T12:30:21;23.10;78.00
7044;DHT22;57890;52.36301240;9.76001620;2022-07-23T12:32:50;23.20;77.60
7044;DHT22;57890;52.36301240;9.76001620;2022-07-23T12:35:18;23.30;78.00
7044;DHT22;57890;52.36301240;9.76001620;2022-07-23T12:37:46;23.40;77.80
7044;DHT22;57890;52.36301240;9.76001620;2022-07-23T12:40:25;23.50;77.80
7044;DHT22;57890;52.36301240;9.76001620;2022-07-23T12:42:56;23.60;78.00
7044;DHT22;57890;52.36301240;9.76001620;2022-07-23T12:45:25;23.70;77.80
7044;DHT22;57890;52.36301240;9.76001620;2022-07-23T12:47:57;23.80;78.00
7044;DHT22;57890;52.36301240;9.76001620;2022-07-23T12:50:56;23.90;77.50
7044;DHT22;57890;52.36301240;9.76001620;2022-07-23T12:53:26;24.00;77.30
7044;DHT22;57890;52.36301240;9.76001620;2022-07-23T12:56:03;24.10;77.70
7044;DHT22;57890;52.36301240;9.76001620;2022-07-23T12:58:41;24.30;78.00
7044;DHT22;57890;52.36301240;9.76001620;2022-07-23T13:01:10;24.50;78.00
7044;DHT22;57890;52.36301240;9.76001620;2022-07-23T13:03:56;24.50;77.30
7044;DHT22;57890;52.36301240;9.76001620;2022-07-23T13:06:24;24.70;77.00
7044;DHT22;57890;52.36301240;9.76001620;2022-07-23T13:08:51;24.70;77.00
7044;DHT22;57890;52.36301240;9.76001620;2022-07-23T13:11:18;24.80;76.70
7044;DHT22;57890;52.36301240;9.76001620;2022-07-23T13:13:45;24.90;76.40
7044;DHT22;57890;52.36301240;9.76001620;2022-07-23T13:16:13;24.90;75.80
7044;DHT22;57890;52.36301240;9.76001620;2022-07-23T13:18:40;25.10;75.40
7044;DHT22;57890;52.36301240;9.76001620;2022-07-23T13:21:08;25.00;76.00
7044;DHT22;57890;52.36301240;9.76001620;2022-07-23T13:23:35;25.10;75.40
7044;DHT22;57890;52.36301240;9.76001620;2022-07-23T13:26:02;25.50;75.20
7044;DHT22;57890;52.36301240;9.76001620;2022-07-23T13:28:30;25.80;74.60
7044;DHT22;57890;52.36301240;9.76001620;2022-07-23T13:30:57;26.20;74.70
7044;DHT22;57890;52.36301240;9.76001620;2022-07-23T13:33:26;26.40;74.30
7044;DHT22;57890;52.36301240;9.76001620;2022-07-23T13:35:53;26.20;73.70
7044;DHT22;57890;52.36301240;9.76001620;2022-07-23T13:38:21;27.00;73.40
7044;DHT22;57890;52.36301240;9.76001620;2022-07-23T13:40:50;26.80;72.70
7044;DHT22;57890;52.36301240;9.76001620;2022-07-23T13:43:18;26.70;72.10
7044;DHT22;57890;52.36301240;9.76001620;2022-07-23T13:45:45;26.40;72.20
7044;DHT22;57890;52.36301240;9.76001620;2022-07-23T13:48:14;27.00;72.60